sensor_id;sensor_type;location;lat;lon;timestamp;P1;durP1;ratioP1;P2;durP2;ratioP2
31920;SDS011;66485;52.128;4.436;2023-05-10T00:01:20;1.83;;;0.90;;
31920;SDS011;66485;52.128;4.436;2023-05-10T00:03:45;1.83;;;0.98;;
31920;SDS011;66485;52.128;4.436;2023-05-10T00:06:11;1.20;;;0.80;;
31920;SDS011;66485;52.128;4.436;2023-05-10T00:08:37;1.48;;;0.90;;
31920;SDS011;66485;52.128;4.436;2023-05-10T00:11:02;1.52;;;0.90;;
31920;SDS011;66485;52.128;4.436;2023-05-10T00:13:28;1.25;;;0.88;;
31920;SDS011;66485;52.128;4.436;2023-05-10T00:15:53;1.20;;;0.73;;
31920;SDS011;66485;52.128;4.436;2023-05-10T00:18:18;1.10;;;0.80;;
31920;SDS011;66485;52.128;4.436;2023-05-10T00:20:44;0.80;;;0.63;;
31920;SDS011;66485;52.128;4.436;2023-05-10T00:23:11;1.02;;;0.70;;
31920;SDS011;66485;52.128;4.436;2023-05-10T00:25:36;1.08;;;0.80;;
31920;SDS011;66485;52.128;4.436;2023-05-10T00:28:02;0.90;;;0.80;;
31920;SDS011;66485;52.128;4.436;2023-05-10T00:30:27;1.00;;;0.70;;
31920;SDS011;66485;52.128;4.436;2023-05-10T00:32:52;1.50;;;1.00;;
31920;SDS011;66485;52.128;4.436;2023-05-10T00:35:18;3.03;;;0.90;;
31920;SDS011;66485;52.128;4.436;2023-05-10T00:37:43;1.17;;;0.80;;
31920;SDS011;66485;52.128;4.436;2023-05-10T00:40:08;1.08;;;0.80;;
31920;SDS011;66485;52.128;4.436;2023-05-10T00:42:34;1.35;;;0.80;;
31920;SDS011;66485;52.128;4.436;2023-05-10T00:44:59;1.55;;;0.80;;
31920;SDS011;66485;52.128;4.436;2023-05-10T00:47:25;1.05;;;0.80;;
31920;SDS011;66485;52.128;4.436;2023-05-10T00:49:51;1.85;;;0.90;;
31920;SDS011;66485;52.128;4.436;2023-05-10T00:52:16;0.75;;;0.60;;
31920;SDS011;66485;52.128;4.436;2023-05-10T00:54:42;1.17;;;0.80;;
31920;SDS011;66485;52.128;4.436;2023-05-10T00:57:07;1.20;;;0.80;;
31920;SDS011;66485;52.128;4.436;2023-05-10T00:59:33;1.33;;;0.80;;
31920;SDS011;66485;52.128;4.436;2023-05-10T01:01:59;1.35;;;0.73;;
31920;SDS011;66485;52.128;4.436;2023-05-10T01:04:24;1.50;;;0.75;;
31920;SDS011;66485;52.128;4.436;2023-05-10T01:06:53;1.65;;;0.77;;
31920;SDS011;66485;52.128;4.436;2023-05-10T01:09:19;0.90;;;0.70;;
31920;SDS011;66485;52.128;4.436;2023-05-10T01:11:45;1.33;;;0.85;;
31920;SDS011;66485;52.128;4.436;2023-05-10T01:14:11;1.20;;;0.82;;
31920;SDS011;66485;52.128;4.436;2023-05-10T01:16:37;1.35;;;0.85;;
31920;SDS011;66485;52.128;4.436;2023-05-10T01:19:04;1.05;;;0.80;;
31920;SDS011;66485;52.128;4.436;2023-05-10T01:33:15;1.05;;;0.77;;
31920;SDS011;66485;52.128;4.436;2023-05-10T01:35:46;1.70;;;0.90;;
31920;SDS011;66485;52.128;4.436;2023-05-10T01:44:12;1.10;;;0.85;;
31920;SDS011;66485;52.128;4.436;2023-05-10T01:46:31;1.08;;;0.80;;
31920;SDS011;66485;52.128;4.436;2023-05-10T01:49:01;1.40;;;0.77;;
31920;SDS011;66485;52.128;4.436;2023-05-10T01:51:31;1.13;;;0.85;;
31920;SDS011;66485;52.128;4.436;2023-05-10T01:54:20;1.23;;;0.95;;
31920;SDS011;66485;52.128;4.436;2023-05-10T01:56:47;1.17;;;0.77;;
31920;SDS011;66485;52.128;4.436;2023-05-10T01:59:20;1.05;;;0.80;;
31920;SDS011;66485;52.128;4.436;2023-05-10T02:01:47;1.10;;;0.90;;
31920;SDS011;66485;52.128;4.436;2023-05-10T02:04:15;0.80;;;0.70;;
31920;SDS011;66485;52.128;4.436;2023-05-10T02:06:42;1.48;;;0.80;;
31920;SDS011;66485;52.128;4.436;2023-05-10T02:09:08;1.17;;;0.80;;
31920;SDS011;66485;52.128;4.436;2023-05-10T02:11:37;1.55;;;0.88;;
31920;SDS011;66485;52.128;4.436;2023-05-10T02:14:03;1.25;;;0.95;;
31920;SDS011;66485;52.128;4.436;2023-05-10T02:16:32;2.13;;;0.90;;
31920;SDS011;66485;52.128;4.436;2023-05-10T02:18:58;1.58;;;0.82;;
31920;SDS011;66485;52.128;4.436;2023-05-10T02:21:26;1.48;;;0.90;;
31920;SDS011;66485;52.128;4.436;2023-05-10T02:23:52;1.20;;;0.90;;
31920;SDS011;66485;52.128;4.436;2023-05-10T02:26:20;1.23;;;0.88;;
31920;SDS011;66485;52.128;4.436;2023-05-10T02:28:48;1.27;;;1.00;;
31920;SDS011;66485;52.128;4.436;2023-05-10T02:31:14;1.73;;;0.80;;
31920;SDS011;66485;52.128;4.436;2023-05-10T02:33:40;1.88;;;0.90;;
31920;SDS011;66485;52.128;4.436;2023-05-10T02:36:08;2.10;;;0.90;;
31920;SDS011;66485;52.128;4.436;2023-05-10T02:38:34;2.28;;;0.90;;
31920;SDS011;66485;52.128;4.436;2023-05-10T02:41:01;1.50;;;1.02;;
31920;SDS011;66485;52.128;4.436;2023-05-10T02:43:28;1.73;;;1.10;;
31920;SDS011;66485;52.128;4.436;2023-05-10T02:45:57;2.42;;;1.10;;
31920;SDS011;66485;52.128;4.436;2023-05-10T02:48:22;2.10;;;1.00;;
31920;SDS011;66485;52.128;4.436;2023-05-10T02:50:48;2.95;;;1.08;;
31920;SDS011;66485;52.128;4.436;2023-05-10T02:53:28;1.45;;;1.02;;
31920;SDS011;66485;52.128;4.436;2023-05-10T02:55:57;2.10;;;1.23;;
31920;SDS011;66485;52.128;4.436;2023-05-10T02:58:25;1.75;;;1.10;;
31920;SDS011;66485;52.128;4.436;2023-05-10T03:00:51;1.67;;;1.17;;
31920;SDS011;66485;52.128;4.436;2023-05-10T03:03:17;2.42;;;1.20;;
31920;SDS011;66485;52.128;4.436;2023-05-10T03:05:42;2.47;;;1.20;;
31920;SDS011;66485;52.128;4.436;2023-05-10T03:08:08;1.92;;;1.00;;
31920;SDS011;66485;52.128;4.436;2023-05-10T03:10:33;1.50;;;1.00;;
31920;SDS011;66485;52.128;4.436;2023-05-10T03:20:48;1.52;;;1.02;;
31920;SDS011;66485;52.128;4.436;2023-05-10T03:26:26;1.75;;;1.00;;
31920;SDS011;66485;52.128;4.436;2023-05-10T03:28:53;1.88;;;1.00;;
31920;SDS011;66485;52.128;4.436;2023-05-10T03:31:19;2.17;;;1.02;;
31920;SDS011;66485;52.128;4.436;2023-05-10T03:33:45;2.13;;;1.10;;
31920;SDS011;66485;52.128;4.436;2023-05-10T03:36:12;1.63;;;0.90;;
31920;SDS011;66485;52.128;4.436;2023-05-10T03:38:37;2.20;;;1.13;;
31920;SDS011;66485;52.128;4.436;2023-05-10T03:41:02;1.60;;;1.10;;
31920;SDS011;66485;52.128;4.436;2023-05-10T03:43:28;2.10;;;1.13;;
31920;SDS011;66485;52.128;4.436;2023-05-10T03:45:53;2.55;;;1.23;;
31920;SDS011;66485;52.128;4.436;2023-05-10T03:48:18;2.72;;;1.20;;
31920;SDS011;66485;52.128;4.436;2023-05-10T03:50:44;1.95;;;1.23;;
31920;SDS011;66485;52.128;4.436;2023-05-10T03:53:09;2.15;;;1.40;;
31920;SDS011;66485;52.128;4.436;2023-05-10T03:55:34;1.77;;;1.05;;
31920;SDS011;66485;52.128;4.436;2023-05-10T03:58:01;1.40;;;1.00;;
31920;SDS011;66485;52.128;4.436;2023-05-10T04:00:26;1.77;;;1.00;;
31920;SDS011;66485;52.128;4.436;2023-05-10T04:02:51;1.85;;;1.00;;
31920;SDS011;66485;52.128;4.436;2023-05-10T04:05:17;1.70;;;1.10;;
31920;SDS011;66485;52.128;4.436;2023-05-10T04:07:42;2.20;;;1.13;;
31920;SDS011;66485;52.128;4.436;2023-05-10T04:10:09;2.33;;;1.30;;
31920;SDS011;66485;52.128;4.436;2023-05-10T04:12:34;1.58;;;1.08;;
31920;SDS011;66485;52.128;4.436;2023-05-10T04:15:02;1.88;;;1.15;;
31920;SDS011;66485;52.128;4.436;2023-05-10T04:17:28;1.42;;;1.02;;
31920;SDS011;66485;52.128;4.436;2023-05-10T04:19:53;2.50;;;1.30;;
31920;SDS011;66485;52.128;4.436;2023-05-10T04:22:19;1.80;;;1.10;;
31920;SDS011;66485;52.128;4.436;2023-05-10T04:24:45;1.90;;;1.10;;
31920;SDS011;66485;52.128;4.436;2023-05-10T04:27:10;2.20;;;1.20;;
31920;SDS011;66485;52.128;4.436;2023-05-10T04:29:36;1.80;;;1.30;;
31920;SDS011;66485;52.128;4.436;2023-05-10T04:32:01;2.03;;;1.27;;
31920;SDS011;66485;52.128;4.436;2023-05-10T04:34:28;2.65;;;1.40;;
31920;SDS011;66485;52.128;4.436;2023-05-10T04:36:54;2.08;;;1.10;;
31920;SDS011;66485;52.128;4.436;2023-05-10T04:39:19;2.10;;;1.42;;
31920;SDS011;66485;52.128;4.436;2023-05-10T04:41:44;2.13;;;1.30;;
31920;SDS011;66485;52.128;4.436;2023-05-10T04:44:10;3.58;;;1.52;;
31920;SDS011;66485;52.128;4.436;2023-05-10T04:46:35;2.17;;;1.35;;
31920;SDS011;66485;52.128;4.436;2023-05-10T04:49:01;2.28;;;1.55;;
31920;SDS011;66485;52.128;4.436;2023-05-10T04:51:26;2.63;;;1.35;;
31920;SDS011;66485;52.128;4.436;2023-05-10T04:53:51;2.25;;;1.48;;
31920;SDS011;66485;52.128;4.436;2023-05-10T04:56:17;2.08;;;1.50;;
31920;SDS011;66485;52.128;4.436;2023-05-10T04:58:42;2.83;;;1.30;;
31920;SDS011;66485;52.128;4.436;2023-05-10T05:01:08;2.72;;;1.48;;
31920;SDS011;66485;52.128;4.436;2023-05-10T05:03:34;2.42;;;1.50;;
31920;SDS011;66485;52.128;4.436;2023-05-10T05:05:59;2.17;;;1.20;;
31920;SDS011;66485;52.128;4.436;2023-05-10T05:08:25;2.65;;;1.55;;
31920;SDS011;66485;52.128;4.436;2023-05-10T05:10:52;2.28;;;1.33;;
31920;SDS011;66485;52.128;4.436;2023-05-10T05:13:18;2.70;;;1.50;;
31920;SDS011;66485;52.128;4.436;2023-05-10T05:15:43;2.85;;;1.50;;
31920;SDS011;66485;52.128;4.436;2023-05-10T05:18:09;2.10;;;1.30;;
31920;SDS011;66485;52.128;4.436;2023-05-10T05:20:34;2.33;;;1.27;;
31920;SDS011;66485;52.128;4.436;2023-05-10T05:23:00;2.30;;;1.50;;
31920;SDS011;66485;52.128;4.436;2023-05-10T05:25:25;3.65;;;1.70;;
31920;SDS011;66485;52.128;4.436;2023-05-10T05:27:51;1.88;;;1.10;;
31920;SDS011;66485;52.128;4.436;2023-05-10T05:30:16;2.20;;;1.45;;
31920;SDS011;66485;52.128;4.436;2023-05-10T05:32:41;2.88;;;1.67;;
31920;SDS011;66485;52.128;4.436;2023-05-10T05:35:07;2.15;;;1.20;;
31920;SDS011;66485;52.128;4.436;2023-05-10T05:37:32;2.83;;;1.50;;
31920;SDS011;66485;52.128;4.436;2023-05-10T05:39:58;2.28;;;1.45;;
31920;SDS011;66485;52.128;4.436;2023-05-10T05:42:23;2.40;;;1.48;;
31920;SDS011;66485;52.128;4.436;2023-05-10T05:44:48;2.10;;;1.27;;
31920;SDS011;66485;52.128;4.436;2023-05-10T05:47:14;2.70;;;1.48;;
31920;SDS011;66485;52.128;4.436;2023-05-10T05:49:39;2.42;;;1.30;;
31920;SDS011;66485;52.128;4.436;2023-05-10T05:52:05;2.80;;;1.45;;
31920;SDS011;66485;52.128;4.436;2023-05-10T05:54:30;2.00;;;1.30;;
31920;SDS011;66485;52.128;4.436;2023-05-10T05:56:57;2.55;;;1.60;;
31920;SDS011;66485;52.128;4.436;2023-05-10T05:59:23;1.95;;;1.30;;
31920;SDS011;66485;52.128;4.436;2023-05-10T06:01:49;2.50;;;1.35;;
31920;SDS011;66485;52.128;4.436;2023-05-10T06:04:15;2.70;;;1.50;;
31920;SDS011;66485;52.128;4.436;2023-05-10T06:06:40;3.10;;;1.13;;
31920;SDS011;66485;52.128;4.436;2023-05-10T06:09:06;2.63;;;1.50;;
31920;SDS011;66485;52.128;4.436;2023-05-10T06:11:31;2.25;;;1.48;;
31920;SDS011;66485;52.128;4.436;2023-05-10T06:13:59;2.03;;;1.20;;
31920;SDS011;66485;52.128;4.436;2023-05-10T06:16:25;2.10;;;1.40;;
31920;SDS011;66485;52.128;4.436;2023-05-10T06:18:50;2.15;;;1.50;;
31920;SDS011;66485;52.128;4.436;2023-05-10T06:21:16;2.50;;;1.50;;
31920;SDS011;66485;52.128;4.436;2023-05-10T06:23:41;1.90;;;1.30;;
31920;SDS011;66485;52.128;4.436;2023-05-10T06:26:06;2.80;;;1.60;;
31920;SDS011;66485;52.128;4.436;2023-05-10T06:28:32;2.80;;;1.50;;
31920;SDS011;66485;52.128;4.436;2023-05-10T06:30:58;3.08;;;1.50;;
31920;SDS011;66485;52.128;4.436;2023-05-10T06:33:24;2.88;;;1.40;;
31920;SDS011;66485;52.128;4.436;2023-05-10T06:35:49;1.92;;;1.33;;
31920;SDS011;66485;52.128;4.436;2023-05-10T06:38:14;2.20;;;1.20;;
31920;SDS011;66485;52.128;4.436;2023-05-10T06:40:43;2.65;;;1.25;;
31920;SDS011;66485;52.128;4.436;2023-05-10T06:43:09;2.47;;;1.80;;
31920;SDS011;66485;52.128;4.436;2023-05-10T06:45:34;1.88;;;1.27;;
31920;SDS011;66485;52.128;4.436;2023-05-10T06:48:00;2.47;;;1.60;;
31920;SDS011;66485;52.128;4.436;2023-05-10T06:50:26;2.58;;;1.40;;
31920;SDS011;66485;52.128;4.436;2023-05-10T06:52:51;1.63;;;1.20;;
31920;SDS011;66485;52.128;4.436;2023-05-10T06:55:16;1.70;;;1.20;;
31920;SDS011;66485;52.128;4.436;2023-05-10T06:57:42;2.10;;;1.40;;
31920;SDS011;66485;52.128;4.436;2023-05-10T07:00:07;1.95;;;1.20;;
31920;SDS011;66485;52.128;4.436;2023-05-10T07:02:34;2.00;;;1.25;;
31920;SDS011;66485;52.128;4.436;2023-05-10T07:04:59;2.47;;;1.42;;
31920;SDS011;66485;52.128;4.436;2023-05-10T07:07:25;1.45;;;1.10;;
31920;SDS011;66485;52.128;4.436;2023-05-10T07:09:50;3.17;;;1.40;;
31920;SDS011;66485;52.128;4.436;2023-05-10T07:12:16;1.75;;;1.20;;
31920;SDS011;66485;52.128;4.436;2023-05-10T07:14:42;2.03;;;1.27;;
31920;SDS011;66485;52.128;4.436;2023-05-10T07:17:07;2.10;;;1.30;;
31920;SDS011;66485;52.128;4.436;2023-05-10T07:19:33;2.67;;;1.20;;
31920;SDS011;66485;52.128;4.436;2023-05-10T07:21:58;1.98;;;1.13;;
31920;SDS011;66485;52.128;4.436;2023-05-10T07:24:23;2.75;;;1.30;;
31920;SDS011;66485;52.128;4.436;2023-05-10T07:26:49;1.88;;;1.20;;
31920;SDS011;66485;52.128;4.436;2023-05-10T07:29:14;2.15;;;1.27;;
31920;SDS011;66485;52.128;4.436;2023-05-10T07:31:40;2.00;;;1.20;;
31920;SDS011;66485;52.128;4.436;2023-05-10T07:34:07;2.33;;;1.33;;
31920;SDS011;66485;52.128;4.436;2023-05-10T07:36:33;1.50;;;1.02;;
31920;SDS011;66485;52.128;4.436;2023-05-10T07:38:59;1.80;;;1.20;;
31920;SDS011;66485;52.128;4.436;2023-05-10T07:41:24;2.10;;;1.30;;
31920;SDS011;66485;52.128;4.436;2023-05-10T07:43:49;2.17;;;1.30;;
31920;SDS011;66485;52.128;4.436;2023-05-10T07:46:15;2.45;;;1.17;;
31920;SDS011;66485;52.128;4.436;2023-05-10T07:48:40;2.33;;;1.30;;
31920;SDS011;66485;52.128;4.436;2023-05-10T07:51:06;1.60;;;1.10;;
31920;SDS011;66485;52.128;4.436;2023-05-10T07:53:34;1.92;;;1.23;;
31920;SDS011;66485;52.128;4.436;2023-05-10T07:56:19;2.58;;;1.30;;
31920;SDS011;66485;52.128;4.436;2023-05-10T07:58:50;1.88;;;1.10;;
31920;SDS011;66485;52.128;4.436;2023-05-10T08:01:16;2.10;;;1.33;;
31920;SDS011;66485;52.128;4.436;2023-05-10T08:03:41;1.95;;;1.20;;
31920;SDS011;66485;52.128;4.436;2023-05-10T08:06:06;2.00;;;1.10;;
31920;SDS011;66485;52.128;4.436;2023-05-10T08:08:32;1.98;;;1.10;;
31920;SDS011;66485;52.128;4.436;2023-05-10T08:10:57;1.55;;;1.10;;
31920;SDS011;66485;52.128;4.436;2023-05-10T08:13:22;1.85;;;1.17;;
31920;SDS011;66485;52.128;4.436;2023-05-10T08:15:48;1.70;;;1.23;;
31920;SDS011;66485;52.128;4.436;2023-05-10T08:18:13;1.48;;;1.15;;
31920;SDS011;66485;52.128;4.436;2023-05-10T08:20:39;3.67;;;1.50;;
31920;SDS011;66485;52.128;4.436;2023-05-10T08:23:04;1.70;;;1.10;;
31920;SDS011;66485;52.128;4.436;2023-05-10T08:25:30;1.60;;;1.10;;
31920;SDS011;66485;52.128;4.436;2023-05-10T08:27:56;1.92;;;1.20;;
31920;SDS011;66485;52.128;4.436;2023-05-10T08:30:21;2.72;;;1.10;;
31920;SDS011;66485;52.128;4.436;2023-05-10T08:32:47;1.67;;;1.00;;
31920;SDS011;66485;52.128;4.436;2023-05-10T08:35:12;1.77;;;1.10;;
31920;SDS011;66485;52.128;4.436;2023-05-10T08:37:37;1.88;;;1.05;;
31920;SDS011;66485;52.128;4.436;2023-05-10T08:40:03;1.52;;;0.98;;
31920;SDS011;66485;52.128;4.436;2023-05-10T08:42:28;1.65;;;1.17;;
31920;SDS011;66485;52.128;4.436;2023-05-10T08:44:55;2.55;;;1.30;;
31920;SDS011;66485;52.128;4.436;2023-05-10T08:47:22;1.90;;;1.23;;
31920;SDS011;66485;52.128;4.436;2023-05-10T08:49:48;2.20;;;1.10;;
31920;SDS011;66485;52.128;4.436;2023-05-10T08:52:16;1.80;;;1.10;;
31920;SDS011;66485;52.128;4.436;2023-05-10T08:54:43;1.80;;;1.13;;
31920;SDS011;66485;52.128;4.436;2023-05-10T08:57:09;1.50;;;1.05;;
31920;SDS011;66485;52.128;4.436;2023-05-10T08:59:35;2.28;;;1.10;;
31920;SDS011;66485;52.128;4.436;2023-05-10T09:02:03;1.77;;;1.05;;
31920;SDS011;66485;52.128;4.436;2023-05-10T09:04:29;1.73;;;1.10;;
31920;SDS011;66485;52.128;4.436;2023-05-10T09:06:56;1.60;;;1.20;;
31920;SDS011;66485;52.128;4.436;2023-05-10T09:09:21;1.63;;;1.10;;
31920;SDS011;66485;52.128;4.436;2023-05-10T09:11:48;1.63;;;1.00;;
31920;SDS011;66485;52.128;4.436;2023-05-10T09:14:14;2.00;;;1.05;;
31920;SDS011;66485;52.128;4.436;2023-05-10T09:16:40;1.58;;;1.05;;
31920;SDS011;66485;52.128;4.436;2023-05-10T09:19:06;1.80;;;1.10;;
31920;SDS011;66485;52.128;4.436;2023-05-10T09:21:34;2.33;;;1.23;;
31920;SDS011;66485;52.128;4.436;2023-05-10T09:24:03;1.75;;;0.90;;
31920;SDS011;66485;52.128;4.436;2023-05-10T09:26:30;2.70;;;0.98;;
31920;SDS011;66485;52.128;4.436;2023-05-10T09:28:56;1.50;;;1.00;;
31920;SDS011;66485;52.128;4.436;2023-05-10T09:31:23;1.48;;;1.05;;
31920;SDS011;66485;52.128;4.436;2023-05-10T09:33:50;1.50;;;0.98;;
31920;SDS011;66485;52.128;4.436;2023-05-10T09:36:17;1.85;;;1.10;;
31920;SDS011;66485;52.128;4.436;2023-05-10T09:38:49;1.52;;;1.10;;
31920;SDS011;66485;52.128;4.436;2023-05-10T09:41:20;2.50;;;1.27;;
31920;SDS011;66485;52.128;4.436;2023-05-10T09:43:49;1.38;;;0.93;;
31920;SDS011;66485;52.128;4.436;2023-05-10T09:46:15;2.13;;;1.20;;
31920;SDS011;66485;52.128;4.436;2023-05-10T09:48:44;2.15;;;1.10;;
31920;SDS011;66485;52.128;4.436;2023-05-10T09:51:24;1.40;;;0.90;;
31920;SDS011;66485;52.128;4.436;2023-05-10T09:56:53;1.17;;;0.80;;
31920;SDS011;66485;52.128;4.436;2023-05-10T09:59:19;1.48;;;0.90;;
31920;SDS011;66485;52.128;4.436;2023-05-10T10:01:49;1.67;;;1.10;;
31920;SDS011;66485;52.128;4.436;2023-05-10T10:04:15;2.25;;;1.20;;
31920;SDS011;66485;52.128;4.436;2023-05-10T10:06:41;1.30;;;0.90;;
31920;SDS011;66485;52.128;4.436;2023-05-10T10:09:06;1.40;;;1.00;;
31920;SDS011;66485;52.128;4.436;2023-05-10T10:11:36;1.17;;;0.90;;
31920;SDS011;66485;52.128;4.436;2023-05-10T10:14:02;1.33;;;0.90;;
31920;SDS011;66485;52.128;4.436;2023-05-10T10:16:28;1.58;;;0.98;;
31920;SDS011;66485;52.128;4.436;2023-05-10T10:18:55;2.42;;;1.10;;
31920;SDS011;66485;52.128;4.436;2023-05-10T10:21:21;2.63;;;1.15;;
31920;SDS011;66485;52.128;4.436;2023-05-10T10:23:47;1.25;;;0.85;;
31920;SDS011;66485;52.128;4.436;2023-05-10T10:26:12;1.85;;;1.10;;
31920;SDS011;66485;52.128;4.436;2023-05-10T10:31:47;2.00;;;1.10;;
31920;SDS011;66485;52.128;4.436;2023-05-10T10:34:23;1.60;;;1.02;;
31920;SDS011;66485;52.128;4.436;2023-05-10T10:36:52;1.50;;;0.95;;
31920;SDS011;66485;52.128;4.436;2023-05-10T10:39:18;1.95;;;1.15;;
31920;SDS011;66485;52.128;4.436;2023-05-10T10:41:49;3.05;;;1.80;;
31920;SDS011;66485;52.128;4.436;2023-05-10T10:52:33;2.08;;;1.20;;
31920;SDS011;66485;52.128;4.436;2023-05-10T10:55:01;2.40;;;1.30;;
31920;SDS011;66485;52.128;4.436;2023-05-10T11:10:38;3.13;;;1.08;;
31920;SDS011;66485;52.128;4.436;2023-05-10T11:13:06;1.77;;;1.10;;
31920;SDS011;66485;52.128;4.436;2023-05-10T11:15:33;2.08;;;1.00;;
31920;SDS011;66485;52.128;4.436;2023-05-10T11:17:59;1.80;;;1.20;;
31920;SDS011;66485;52.128;4.436;2023-05-10T11:20:41;1.55;;;1.05;;
31920;SDS011;66485;52.128;4.436;2023-05-10T11:23:13;4.40;;;1.50;;
31920;SDS011;66485;52.128;4.436;2023-05-10T11:25:44;2.38;;;1.30;;
31920;SDS011;66485;52.128;4.436;2023-05-10T11:28:11;2.92;;;1.10;;
31920;SDS011;66485;52.128;4.436;2023-05-10T11:30:40;2.63;;;1.30;;
31920;SDS011;66485;52.128;4.436;2023-05-10T11:33:07;2.70;;;1.25;;
31920;SDS011;66485;52.128;4.436;2023-05-10T11:35:39;1.70;;;1.10;;
31920;SDS011;66485;52.128;4.436;2023-05-10T11:38:08;2.10;;;1.30;;
31920;SDS011;66485;52.128;4.436;2023-05-10T11:40:35;1.60;;;1.00;;
31920;SDS011;66485;52.128;4.436;2023-05-10T11:43:01;3.20;;;1.10;;
31920;SDS011;66485;52.128;4.436;2023-05-10T11:45:28;2.33;;;1.42;;
31920;SDS011;66485;52.128;4.436;2023-05-10T11:47:58;2.35;;;1.20;;
31920;SDS011;66485;52.128;4.436;2023-05-10T11:50:24;1.83;;;1.08;;
31920;SDS011;66485;52.128;4.436;2023-05-10T11:52:54;2.42;;;1.25;;
31920;SDS011;66485;52.128;4.436;2023-05-10T11:55:21;2.40;;;1.30;;
31920;SDS011;66485;52.128;4.436;2023-05-10T11:57:47;2.28;;;1.27;;
31920;SDS011;66485;52.128;4.436;2023-05-10T12:00:16;1.60;;;1.02;;
31920;SDS011;66485;52.128;4.436;2023-05-10T12:02:41;1.92;;;0.98;;
31920;SDS011;66485;52.128;4.436;2023-05-10T12:05:07;3.08;;;1.30;;
31920;SDS011;66485;52.128;4.436;2023-05-10T12:07:33;2.67;;;1.20;;
31920;SDS011;66485;52.128;4.436;2023-05-10T12:10:05;3.45;;;1.40;;
31920;SDS011;66485;52.128;4.436;2023-05-10T12:12:38;2.60;;;1.50;;
31920;SDS011;66485;52.128;4.436;2023-05-10T12:15:10;2.28;;;1.20;;
31920;SDS011;66485;52.128;4.436;2023-05-10T12:17:37;2.43;;;1.50;;
31920;SDS011;66485;52.128;4.436;2023-05-10T12:20:14;2.22;;;1.23;;
31920;SDS011;66485;52.128;4.436;2023-05-10T12:22:40;2.25;;;1.23;;
31920;SDS011;66485;52.128;4.436;2023-05-10T12:25:07;2.60;;;1.15;;
31920;SDS011;66485;52.128;4.436;2023-05-10T12:27:33;3.15;;;1.45;;
31920;SDS011;66485;52.128;4.436;2023-05-10T12:29:59;1.88;;;1.20;;
31920;SDS011;66485;52.128;4.436;2023-05-10T12:32:40;2.03;;;1.13;;
31920;SDS011;66485;52.128;4.436;2023-05-10T12:35:06;2.83;;;1.40;;
31920;SDS011;66485;52.128;4.436;2023-05-10T12:37:33;1.95;;;1.25;;
31920;SDS011;66485;52.128;4.436;2023-05-10T12:40:06;3.00;;;1.33;;
31920;SDS011;66485;52.128;4.436;2023-05-10T12:42:36;3.40;;;1.27;;
31920;SDS011;66485;52.128;4.436;2023-05-10T12:45:03;2.47;;;1.55;;
31920;SDS011;66485;52.128;4.436;2023-05-10T12:47:29;2.45;;;1.30;;
31920;SDS011;66485;52.128;4.436;2023-05-10T12:49:55;3.45;;;1.50;;
31920;SDS011;66485;52.128;4.436;2023-05-10T12:52:20;3.50;;;1.75;;
31920;SDS011;66485;52.128;4.436;2023-05-10T12:54:46;2.47;;;1.45;;
31920;SDS011;66485;52.128;4.436;2023-05-10T12:57:12;2.67;;;1.40;;
31920;SDS011;66485;52.128;4.436;2023-05-10T12:59:38;1.90;;;1.30;;
31920;SDS011;66485;52.128;4.436;2023-05-10T13:02:03;2.10;;;1.10;;
31920;SDS011;66485;52.128;4.436;2023-05-10T13:04:28;2.20;;;1.30;;
31920;SDS011;66485;52.128;4.436;2023-05-10T13:06:54;2.80;;;1.45;;
31920;SDS011;66485;52.128;4.436;2023-05-10T13:09:23;2.42;;;1.42;;
31920;SDS011;66485;52.128;4.436;2023-05-10T13:11:48;4.00;;;1.30;;
31920;SDS011;66485;52.128;4.436;2023-05-10T13:14:14;2.65;;;1.20;;
31920;SDS011;66485;52.128;4.436;2023-05-10T13:16:39;2.78;;;1.33;;
31920;SDS011;66485;52.128;4.436;2023-05-10T13:19:04;3.45;;;1.60;;
31920;SDS011;66485;52.128;4.436;2023-05-10T13:21:30;3.38;;;1.65;;
31920;SDS011;66485;52.128;4.436;2023-05-10T13:23:55;2.45;;;1.20;;
31920;SDS011;66485;52.128;4.436;2023-05-10T13:26:20;2.30;;;1.38;;
31920;SDS011;66485;52.128;4.436;2023-05-10T13:28:46;2.60;;;1.55;;
31920;SDS011;66485;52.128;4.436;2023-05-10T13:31:11;2.10;;;1.30;;
31920;SDS011;66485;52.128;4.436;2023-05-10T13:33:37;2.35;;;1.27;;
31920;SDS011;66485;52.128;4.436;2023-05-10T13:36:02;2.60;;;1.80;;
31920;SDS011;66485;52.128;4.436;2023-05-10T13:38:27;2.65;;;1.40;;
31920;SDS011;66485;52.128;4.436;2023-05-10T13:40:53;1.70;;;1.20;;
31920;SDS011;66485;52.128;4.436;2023-05-10T13:43:18;3.42;;;1.67;;
31920;SDS011;66485;52.128;4.436;2023-05-10T13:45:44;2.97;;;1.38;;
31920;SDS011;66485;52.128;4.436;2023-05-10T13:48:09;2.70;;;1.48;;
31920;SDS011;66485;52.128;4.436;2023-05-10T13:50:34;1.98;;;1.17;;
31920;SDS011;66485;52.128;4.436;2023-05-10T13:53:00;2.22;;;1.23;;
31920;SDS011;66485;52.128;4.436;2023-05-10T13:55:25;2.30;;;1.40;;
31920;SDS011;66485;52.128;4.436;2023-05-10T13:57:50;2.33;;;1.30;;
31920;SDS011;66485;52.128;4.436;2023-05-10T14:00:16;2.10;;;1.25;;
31920;SDS011;66485;52.128;4.436;2023-05-10T14:02:42;2.00;;;1.30;;
31920;SDS011;66485;52.128;4.436;2023-05-10T14:05:07;3.30;;;1.35;;
31920;SDS011;66485;52.128;4.436;2023-05-10T14:07:33;2.78;;;1.25;;
31920;SDS011;66485;52.128;4.436;2023-05-10T14:09:58;3.00;;;1.10;;
31920;SDS011;66485;52.128;4.436;2023-05-10T14:12:23;1.98;;;1.20;;
31920;SDS011;66485;52.128;4.436;2023-05-10T14:14:49;1.88;;;1.20;;
31920;SDS011;66485;52.128;4.436;2023-05-10T14:17:14;2.03;;;1.30;;
31920;SDS011;66485;52.128;4.436;2023-05-10T14:19:39;2.53;;;1.30;;
31920;SDS011;66485;52.128;4.436;2023-05-10T14:22:05;2.80;;;1.40;;
31920;SDS011;66485;52.128;4.436;2023-05-10T14:24:30;2.35;;;1.23;;
31920;SDS011;66485;52.128;4.436;2023-05-10T14:26:55;2.53;;;1.17;;
31920;SDS011;66485;52.128;4.436;2023-05-10T14:29:21;3.58;;;1.33;;
31920;SDS011;66485;52.128;4.436;2023-05-10T14:31:47;2.08;;;1.40;;
31920;SDS011;66485;52.128;4.436;2023-05-10T14:34:12;2.20;;;1.30;;
31920;SDS011;66485;52.128;4.436;2023-05-10T14:36:37;2.55;;;1.38;;
31920;SDS011;66485;52.128;4.436;2023-05-10T14:39:03;2.00;;;1.30;;
31920;SDS011;66485;52.128;4.436;2023-05-10T14:41:28;1.88;;;1.13;;
31920;SDS011;66485;52.128;4.436;2023-05-10T14:43:55;2.35;;;1.52;;
31920;SDS011;66485;52.128;4.436;2023-05-10T14:46:20;2.65;;;1.33;;
31920;SDS011;66485;52.128;4.436;2023-05-10T14:48:46;2.10;;;1.30;;
31920;SDS011;66485;52.128;4.436;2023-05-10T14:51:11;2.50;;;1.40;;
31920;SDS011;66485;52.128;4.436;2023-05-10T14:53:37;2.03;;;1.30;;
31920;SDS011;66485;52.128;4.436;2023-05-10T14:56:02;2.25;;;1.25;;
31920;SDS011;66485;52.128;4.436;2023-05-10T14:58:27;2.60;;;1.45;;
31920;SDS011;66485;52.128;4.436;2023-05-10T15:00:53;2.40;;;1.40;;
31920;SDS011;66485;52.128;4.436;2023-05-10T15:03:18;2.17;;;1.17;;
31920;SDS011;66485;52.128;4.436;2023-05-10T15:05:43;2.33;;;1.30;;
31920;SDS011;66485;52.128;4.436;2023-05-10T15:08:09;2.92;;;1.30;;
31920;SDS011;66485;52.128;4.436;2023-05-10T15:10:34;2.75;;;1.40;;
31920;SDS011;66485;52.128;4.436;2023-05-10T15:13:01;1.77;;;1.08;;
31920;SDS011;66485;52.128;4.436;2023-05-10T15:15:28;1.80;;;1.20;;
31920;SDS011;66485;52.128;4.436;2023-05-10T15:17:53;2.50;;;1.10;;
31920;SDS011;66485;52.128;4.436;2023-05-10T15:20:19;2.60;;;1.30;;
31920;SDS011;66485;52.128;4.436;2023-05-10T15:22:44;3.22;;;1.40;;
31920;SDS011;66485;52.128;4.436;2023-05-10T15:25:09;2.97;;;1.58;;
31920;SDS011;66485;52.128;4.436;2023-05-10T15:27:35;2.60;;;1.42;;
31920;SDS011;66485;52.128;4.436;2023-05-10T15:30:00;1.83;;;1.38;;
31920;SDS011;66485;52.128;4.436;2023-05-10T15:32:26;2.53;;;1.35;;
31920;SDS011;66485;52.128;4.436;2023-05-10T15:34:51;2.38;;;1.38;;
31920;SDS011;66485;52.128;4.436;2023-05-10T15:37:16;2.47;;;1.52;;
31920;SDS011;66485;52.128;4.436;2023-05-10T15:39:42;2.17;;;1.38;;